createdAt,value
2018-07-31T00:00:57.206Z,27.40
2018-07-31T00:02:33.755Z,27.40
2018-07-31T00:04:10.368Z,27.30
2018-07-31T00:05:48.643Z,27.30
2018-07-31T00:07:27.149Z,27.30
2018-07-31T00:09:03.875Z,27.20
2018-07-31T00:10:43.539Z,27.30
2018-07-31T00:12:20.334Z,27.20
2018-07-31T00:14:02.659Z,27.30
2018-07-31T00:15:39.502Z,27.20
2018-07-31T00:17:17.659Z,27.20
2018-07-31T00:18:56.374Z,27.10
2018-07-31T00:20:35.209Z,27.00
2018-07-31T00:22:12.278Z,26.90
2018-07-31T00:23:55.559Z,26.90
2018-07-31T00:25:32.167Z,26.90
2018-07-31T00:27:11.398Z,26.90
2018-07-31T00:28:48.918Z,27.00
2018-07-31T00:32:05.221Z,27.00
2018-07-31T00:33:43.570Z,26.90
2018-07-31T00:35:20.088Z,26.90
2018-07-31T00:36:58.373Z,26.90
2018-07-31T00:38:35.707Z,27.00
2018-07-31T00:40:13.227Z,27.00
2018-07-31T00:41:49.694Z,27.00
2018-07-31T00:43:29.202Z,27.00
2018-07-31T00:45:08.166Z,27.00
2018-07-31T00:46:45.347Z,26.90
2018-07-31T00:48:21.907Z,26.90
2018-07-31T00:51:29.693Z,26.90
2018-07-31T00:53:06.703Z,26.80
2018-07-31T00:54:43.520Z,26.70
2018-07-31T00:56:20.289Z,26.50
2018-07-31T00:57:56.997Z,26.50
2018-07-31T00:59:35.653Z,26.50
2018-07-31T01:01:13.012Z,26.50
2018-07-31T01:02:50.341Z,26.60
2018-07-31T01:06:04.751Z,26.50
2018-07-31T01:07:41.456Z,26.60
2018-07-31T01:10:55.120Z,26.60
2018-07-31T01:12:32.448Z,26.60
2018-07-31T01:14:10.302Z,26.60
2018-07-31T01:15:48.585Z,26.60
2018-07-31T01:17:25.267Z,26.60
2018-07-31T01:19:04.619Z,26.60
2018-07-31T01:20:41.333Z,26.60
2018-07-31T01:22:19.624Z,26.60
2018-07-31T01:23:57.063Z,26.60
2018-07-31T01:25:33.615Z,26.60
2018-07-31T01:27:10.108Z,26.60
2018-07-31T01:28:47.908Z,26.60
2018-07-31T01:30:25.202Z,26.60
2018-07-31T01:32:03.099Z,26.50
2018-07-31T01:33:41.003Z,26.60
2018-07-31T01:35:17.668Z,26.60
2018-07-31T01:36:54.204Z,26.60
2018-07-31T01:38:32.390Z,26.50
2018-07-31T01:40:09.006Z,26.40
2018-07-31T01:41:45.496Z,26.40
2018-07-31T01:43:24.612Z,26.40
2018-07-31T01:45:01.780Z,26.30
2018-07-31T01:46:40.715Z,26.20
2018-07-31T01:48:17.176Z,26.20
2018-07-31T01:49:53.799Z,26.20
2018-07-31T01:51:30.623Z,26.20
2018-07-31T01:53:08.214Z,26.30
2018-07-31T01:54:45.721Z,26.40
2018-07-31T01:56:22.860Z,26.50
2018-07-31T01:57:59.738Z,26.50
2018-07-31T01:59:38.095Z,26.50
2018-07-31T02:01:15.026Z,26.50
2018-07-31T02:02:51.502Z,26.40
2018-07-31T02:04:28.437Z,26.50
2018-07-31T02:06:06.112Z,26.50
2018-07-31T02:07:42.675Z,26.40
2018-07-31T02:09:19.208Z,26.40
2018-07-31T02:10:55.731Z,26.40
2018-07-31T02:12:32.420Z,26.20
2018-07-31T02:14:09.338Z,26.20
2018-07-31T02:15:46.655Z,26.40
2018-07-31T02:17:24.024Z,26.50
2018-07-31T02:19:00.553Z,26.50
2018-07-31T02:20:37.111Z,26.50
2018-07-31T02:22:13.608Z,26.70
2018-07-31T02:23:50.602Z,26.70
2018-07-31T02:25:27.088Z,26.80
2018-07-31T02:27:04.114Z,26.60
2018-07-31T02:28:40.628Z,26.40
2018-07-31T02:30:23.064Z,26.30
2018-07-31T02:31:59.632Z,26.20
2018-07-31T02:33:36.149Z,26.30
2018-07-31T02:35:12.702Z,26.40
2018-07-31T02:36:52.650Z,26.40
2018-07-31T02:38:29.227Z,26.40
2018-07-31T02:40:06.243Z,26.40
2018-07-31T02:41:42.801Z,26.40
2018-07-31T02:43:19.862Z,26.50
2018-07-31T02:44:56.307Z,26.60
2018-07-31T02:46:34.298Z,26.80
2018-07-31T02:48:10.992Z,26.80
2018-07-31T02:49:48.373Z,26.70
2018-07-31T02:51:26.090Z,26.60
2018-07-31T02:53:02.946Z,26.60
2018-07-31T02:54:41.572Z,26.50
2018-07-31T02:56:18.161Z,26.50
2018-07-31T02:57:55.156Z,26.40
2018-07-31T02:59:31.659Z,26.20
2018-07-31T03:01:08.585Z,26.10
2018-07-31T03:02:45.522Z,25.90
2018-07-31T03:04:22.130Z,25.60
2018-07-31T03:05:59.519Z,25.60
2018-07-31T03:07:36.033Z,25.80
2018-07-31T03:09:15.300Z,25.80
2018-07-31T03:10:54.313Z,25.70
2018-07-31T03:12:34.052Z,25.90
2018-07-31T03:14:10.958Z,26.20
2018-07-31T03:15:48.464Z,26.20
2018-07-31T03:17:25.148Z,26.10
2018-07-31T03:19:01.989Z,25.90
2018-07-31T03:20:44.908Z,25.80
2018-07-31T03:22:21.859Z,25.80
2018-07-31T03:23:58.394Z,25.80
2018-07-31T03:25:34.883Z,25.80
2018-07-31T03:27:11.528Z,26.00
2018-07-31T03:28:49.176Z,26.40
2018-07-31T03:32:02.008Z,26.20
2018-07-31T03:33:38.547Z,26.10
2018-07-31T03:35:15.572Z,26.30
2018-07-31T03:36:52.026Z,26.20
2018-07-31T03:38:28.566Z,25.90
2018-07-31T03:40:05.534Z,25.80
2018-07-31T03:41:42.055Z,25.60
2018-07-31T03:43:18.681Z,25.50
2018-07-31T03:44:56.390Z,25.80
2018-07-31T03:46:33.480Z,26.00
2018-07-31T03:48:10.336Z,26.20
2018-07-31T03:49:46.900Z,26.00
2018-07-31T03:51:23.473Z,25.90
2018-07-31T03:53:00.864Z,26.20
2018-07-31T03:54:37.740Z,26.30
2018-07-31T03:56:15.320Z,26.40
2018-07-31T03:57:53.548Z,26.40
2018-07-31T03:59:29.983Z,26.40
2018-07-31T04:01:08.061Z,26.50
2018-07-31T04:02:44.502Z,26.50
2018-07-31T04:04:21.006Z,26.40
2018-07-31T04:05:58.009Z,26.40
2018-07-31T04:07:34.749Z,25.80
2018-07-31T04:09:13.429Z,25.60
2018-07-31T04:10:50.310Z,25.50
2018-07-31T04:12:26.886Z,25.70
2018-07-31T04:14:04.043Z,26.10
2018-07-31T04:15:41.412Z,26.20
2018-07-31T04:17:18.214Z,26.00
2018-07-31T04:18:55.561Z,25.60
2018-07-31T04:20:32.620Z,25.40
2018-07-31T04:22:09.564Z,25.10
2018-07-31T04:23:46.142Z,24.80
2018-07-31T04:25:24.220Z,24.90
2018-07-31T04:27:00.683Z,25.20
2018-07-31T04:28:39.956Z,25.20
2018-07-31T04:30:21.451Z,25.30
2018-07-31T04:32:00.219Z,25.20
2018-07-31T04:33:45.522Z,25.10
2018-07-31T04:38:42.393Z,25.60
2018-07-31T04:40:20.496Z,25.70
2018-07-31T04:41:57.997Z,25.60
2018-07-31T04:43:35.055Z,25.70
2018-07-31T04:45:13.742Z,25.70
2018-07-31T04:46:50.630Z,25.80
2018-07-31T04:48:27.728Z,26.00
2018-07-31T04:50:09.960Z,26.30
2018-07-31T04:51:46.883Z,26.80
2018-07-31T04:53:23.759Z,27.20
2018-07-31T04:55:04.292Z,27.10
2018-07-31T04:56:41.233Z,26.80
2018-07-31T04:58:19.935Z,26.60
2018-07-31T04:59:58.888Z,26.50
2018-07-31T05:04:53.356Z,26.20
2018-07-31T05:06:31.631Z,26.20
2018-07-31T05:08:08.298Z,26.20
2018-07-31T05:09:44.767Z,26.00
2018-07-31T05:11:28.735Z,25.70
2018-07-31T05:13:05.889Z,25.60
2018-07-31T05:16:20.046Z,26.20
2018-07-31T05:17:56.588Z,26.50
2018-07-31T05:19:33.436Z,26.80
2018-07-31T05:21:10.060Z,27.10
2018-07-31T05:22:47.043Z,27.20
2018-07-31T05:24:24.263Z,27.30
2018-07-31T05:26:04.695Z,27.40
2018-07-31T05:27:41.998Z,27.40
2018-07-31T05:29:18.467Z,27.40
2018-07-31T05:30:55.165Z,27.40
2018-07-31T05:33:59.400Z,27.90
2018-07-31T05:35:35.824Z,28.50
2018-07-31T05:37:12.254Z,28.70
2018-07-31T05:38:49.255Z,29.10
2018-07-31T05:40:25.729Z,29.80
2018-07-31T05:42:02.299Z,29.30
2018-07-31T05:43:39.374Z,28.90
2018-07-31T05:45:18.267Z,29.20
2018-07-31T05:46:54.986Z,30.00
2018-07-31T05:48:32.152Z,30.60
2018-07-31T05:50:09.663Z,31.00
2018-07-31T05:51:46.605Z,31.00
2018-07-31T05:53:23.238Z,30.80
2018-07-31T05:55:01.049Z,31.00
2018-07-31T05:56:37.553Z,31.60
2018-07-31T05:58:14.404Z,32.00
2018-07-31T05:59:50.942Z,32.10
2018-07-31T06:01:27.835Z,31.70
2018-07-31T06:03:04.311Z,32.10
2018-07-31T06:04:43.210Z,32.10
2018-07-31T06:06:19.667Z,31.90
2018-07-31T06:07:56.160Z,31.60
2018-07-31T06:09:33.467Z,31.00
2018-07-31T06:11:11.087Z,30.40
2018-07-31T06:12:48.100Z,30.20
2018-07-31T06:14:24.661Z,30.40
2018-07-31T06:16:01.418Z,30.50
2018-07-31T06:17:38.334Z,29.90
2018-07-31T06:19:14.772Z,29.90
2018-07-31T06:20:51.251Z,29.40
2018-07-31T06:22:28.376Z,29.20
2018-07-31T06:24:06.824Z,28.90
2018-07-31T06:25:43.232Z,28.60
2018-07-31T06:27:21.143Z,28.70
2018-07-31T06:28:58.502Z,28.30
2018-07-31T06:30:36.582Z,28.00
2018-07-31T06:32:13.055Z,28.10
2018-07-31T06:33:51.145Z,28.10
2018-07-31T06:37:07.166Z,28.90
2018-07-31T06:38:43.583Z,28.90
2018-07-31T06:40:21.753Z,28.70
2018-07-31T06:41:58.121Z,28.70
2018-07-31T06:43:34.540Z,28.80
2018-07-31T06:45:12.614Z,29.10
2018-07-31T06:46:50.628Z,29.40
2018-07-31T06:48:29.472Z,29.20
2018-07-31T06:50:09.714Z,29.20
2018-07-31T06:51:46.188Z,29.20
2018-07-31T06:53:24.233Z,28.80
2018-07-31T06:55:01.011Z,28.60
2018-07-31T06:56:38.171Z,28.20
2018-07-31T06:58:14.643Z,28.50
2018-07-31T06:59:51.921Z,28.80
2018-07-31T07:01:29.001Z,28.70
2018-07-31T07:03:05.630Z,28.70
2018-07-31T07:04:42.103Z,29.10
2018-07-31T07:06:19.089Z,29.40
2018-07-31T07:07:57.678Z,29.40
2018-07-31T07:09:34.186Z,28.40
2018-07-31T07:11:10.682Z,28.30
2018-07-31T07:12:48.639Z,27.90
2018-07-31T07:14:25.371Z,27.60
2018-07-31T07:16:02.068Z,27.40
2018-07-31T07:17:40.429Z,27.80
2018-07-31T07:19:16.868Z,28.50
2018-07-31T07:20:54.468Z,28.90
2018-07-31T07:22:31.953Z,28.80
2018-07-31T07:24:09.068Z,27.90
2018-07-31T07:25:46.880Z,28.20
2018-07-31T07:27:23.753Z,28.80
2018-07-31T07:29:01.185Z,29.20
2018-07-31T07:32:15.078Z,29.30
2018-07-31T07:33:51.656Z,28.50
2018-07-31T07:35:28.110Z,27.40
2018-07-31T07:37:04.639Z,27.20
2018-07-31T07:38:41.897Z,27.40
2018-07-31T07:40:20.553Z,27.70
2018-07-31T07:41:58.047Z,28.10
2018-07-31T07:43:36.215Z,28.70
2018-07-31T07:45:12.694Z,28.60
2018-07-31T07:48:32.156Z,29.10
2018-07-31T07:50:09.484Z,29.30
2018-07-31T07:51:46.846Z,30.00
2018-07-31T07:53:25.001Z,29.00
2018-07-31T07:55:02.297Z,28.60
2018-07-31T07:56:40.524Z,28.80
2018-07-31T07:58:18.680Z,29.10
2018-07-31T07:59:55.701Z,29.30
2018-07-31T08:01:33.065Z,29.80
2018-07-31T08:03:09.480Z,29.80
2018-07-31T08:04:46.702Z,29.90
2018-07-31T08:06:23.458Z,30.10
2018-07-31T08:08:01.069Z,30.10
2018-07-31T08:09:38.433Z,30.70
2018-07-31T08:11:15.443Z,31.00
2018-07-31T08:12:54.936Z,30.20
2018-07-31T08:14:32.010Z,29.80
2018-07-31T08:16:14.526Z,30.10
2018-07-31T08:17:52.845Z,30.30
2018-07-31T08:19:29.303Z,30.10
2018-07-31T08:21:07.378Z,29.90
2018-07-31T08:22:44.974Z,30.20
2018-07-31T08:24:23.951Z,30.80
2018-07-31T08:26:00.417Z,31.40
2018-07-31T08:27:38.533Z,31.80
2018-07-31T08:29:16.043Z,32.00
2018-07-31T08:30:54.643Z,32.20
2018-07-31T08:32:34.628Z,32.30
2018-07-31T08:34:12.763Z,32.40
2018-07-31T08:35:49.414Z,32.60
2018-07-31T08:37:26.332Z,32.10
2018-07-31T08:39:04.042Z,31.40
2018-07-31T08:40:43.611Z,31.80
2018-07-31T08:42:21.627Z,31.70
2018-07-31T08:43:58.371Z,32.30
2018-07-31T08:47:14.291Z,32.70
2018-07-31T08:50:31.902Z,33.00
2018-07-31T08:52:08.548Z,34.00
2018-07-31T08:53:45.124Z,34.20
2018-07-31T08:55:22.167Z,34.50
2018-07-31T08:56:59.321Z,34.30
2018-07-31T08:58:36.747Z,34.30
2018-07-31T09:00:13.353Z,34.00
2018-07-31T09:05:05.092Z,33.60
2018-07-31T09:06:43.546Z,33.90
2018-07-31T09:08:21.075Z,33.50
2018-07-31T09:09:58.586Z,32.80
2018-07-31T09:11:36.640Z,32.50
2018-07-31T09:13:13.702Z,32.30
2018-07-31T09:14:54.303Z,32.50
2018-07-31T09:16:31.308Z,32.70
2018-07-31T09:18:08.311Z,33.10
2018-07-31T09:19:44.858Z,33.40
2018-07-31T09:21:21.304Z,33.70
2018-07-31T09:22:59.231Z,33.90
2018-07-31T09:24:36.618Z,34.00
2018-07-31T09:26:13.021Z,34.20
2018-07-31T09:27:50.201Z,34.00
2018-07-31T09:29:28.271Z,34.20
2018-07-31T09:31:10.785Z,34.50
2018-07-31T09:32:52.813Z,34.90
2018-07-31T09:34:29.214Z,34.50
2018-07-31T09:36:07.375Z,34.20
2018-07-31T09:37:44.358Z,34.00
2018-07-31T09:39:20.722Z,33.60
2018-07-31T09:40:59.336Z,33.40
2018-07-31T09:42:36.247Z,33.50
2018-07-31T09:44:14.095Z,33.60
2018-07-31T09:47:28.530Z,33.60
2018-07-31T09:49:06.727Z,33.30
2018-07-31T09:52:21.125Z,33.00
2018-07-31T09:54:00.621Z,33.20
2018-07-31T09:55:37.467Z,33.30
2018-07-31T09:57:14.928Z,33.30
2018-07-31T09:58:51.336Z,33.30
2018-07-31T10:00:35.883Z,33.30
2018-07-31T10:02:13.405Z,33.40
2018-07-31T10:06:58.025Z,33.30
2018-07-31T10:08:34.809Z,33.20
2018-07-31T10:10:11.422Z,33.20
2018-07-31T10:11:53.039Z,33.20
2018-07-31T10:13:29.998Z,33.50
2018-07-31T10:15:07.012Z,33.50
2018-07-31T10:18:33.121Z,34.00
2018-07-31T10:20:10.187Z,33.70
2018-07-31T10:21:49.340Z,33.50
2018-07-31T10:23:28.690Z,33.60
2018-07-31T10:25:36.707Z,33.60
2018-07-31T10:27:14.632Z,33.50
2018-07-31T10:28:52.780Z,33.60
2018-07-31T10:30:31.787Z,33.70
2018-07-31T10:32:10.499Z,33.70
2018-07-31T10:33:50.836Z,33.70
2018-07-31T10:35:28.198Z,33.70
2018-07-31T10:37:06.473Z,34.00
2018-07-31T10:38:43.005Z,34.10
2018-07-31T10:40:24.074Z,33.80
2018-07-31T10:42:03.553Z,33.70
2018-07-31T10:43:41.447Z,33.40
2018-07-31T10:45:20.697Z,33.10
2018-07-31T10:46:57.652Z,33.20
2018-07-31T10:48:35.222Z,33.00
2018-07-31T10:50:12.284Z,33.10
2018-07-31T10:51:51.856Z,33.30
2018-07-31T10:53:30.151Z,33.50
2018-07-31T10:55:09.432Z,33.70
2018-07-31T10:56:47.710Z,33.80
2018-07-31T10:58:24.217Z,33.80
2018-07-31T11:01:39.442Z,34.10
2018-07-31T11:03:19.624Z,34.10
2018-07-31T11:04:57.650Z,34.20
2018-07-31T11:06:41.825Z,34.00
2018-07-31T11:08:18.867Z,34.10
2018-07-31T11:10:13.469Z,34.50
2018-07-31T11:13:39.460Z,34.50
2018-07-31T11:17:11.473Z,34.50
2018-07-31T11:18:54.201Z,33.90
2018-07-31T11:20:36.660Z,33.90
2018-07-31T11:22:14.842Z,33.60
2018-07-31T11:23:54.124Z,33.30
2018-07-31T11:25:33.217Z,33.30
2018-07-31T11:27:12.078Z,33.40
2018-07-31T11:28:49.123Z,33.60
2018-07-31T11:32:07.053Z,33.60
2018-07-31T11:33:46.562Z,33.70
2018-07-31T11:35:30.237Z,33.70
2018-07-31T11:37:11.535Z,33.70
2018-07-31T11:40:29.771Z,33.50
2018-07-31T11:42:11.937Z,33.60
2018-07-31T11:43:56.597Z,33.80
2018-07-31T11:45:33.751Z,33.90
2018-07-31T11:47:25.256Z,33.90
2018-07-31T11:49:12.546Z,34.00
2018-07-31T11:52:31.895Z,34.70
2018-07-31T11:54:09.837Z,34.60
2018-07-31T11:55:46.825Z,34.50
2018-07-31T11:57:25.942Z,34.40
2018-07-31T11:59:05.807Z,33.90
2018-07-31T12:00:48.082Z,33.60
2018-07-31T12:02:33.925Z,33.50
2018-07-31T12:04:13.766Z,33.40
2018-07-31T12:05:51.417Z,33.20
2018-07-31T12:07:31.241Z,33.10
2018-07-31T12:09:15.106Z,33.00
2018-07-31T12:10:52.591Z,33.10
2018-07-31T12:12:33.537Z,33.40
2018-07-31T12:14:12.801Z,33.60
2018-07-31T12:15:54.170Z,33.70
2018-07-31T12:17:34.042Z,33.70
2018-07-31T12:19:14.345Z,34.00
2018-07-31T12:20:53.589Z,34.30
2018-07-31T12:22:32.547Z,34.00
2018-07-31T12:24:21.234Z,34.20
2018-07-31T12:26:09.657Z,34.20
2018-07-31T12:28:00.397Z,34.00
2018-07-31T12:29:43.941Z,34.10
2018-07-31T12:31:25.411Z,33.80
2018-07-31T12:33:04.709Z,33.70
2018-07-31T12:34:53.022Z,33.60
2018-07-31T12:36:31.015Z,33.50
2018-07-31T12:38:09.276Z,33.40
2018-07-31T12:39:47.796Z,33.30
2018-07-31T12:41:27.986Z,33.20
2018-07-31T12:43:05.679Z,33.50
2018-07-31T12:44:43.220Z,33.60
2018-07-31T12:46:23.343Z,33.80
2018-07-31T12:48:01.661Z,33.90
2018-07-31T12:49:39.897Z,33.50
2018-07-31T12:51:20.355Z,33.30
2018-07-31T12:52:59.488Z,33.00
2018-07-31T12:54:46.282Z,32.70
2018-07-31T12:56:26.300Z,32.80
2018-07-31T12:58:06.289Z,32.80
2018-07-31T13:00:01.761Z,32.80
2018-07-31T13:01:39.384Z,33.00
2018-07-31T13:03:16.840Z,33.10
2018-07-31T13:04:55.283Z,32.90
2018-07-31T13:06:34.362Z,32.90
2018-07-31T13:08:14.305Z,32.90
2018-07-31T13:11:32.516Z,33.00
2018-07-31T13:14:37.872Z,33.10
2018-07-31T13:16:16.096Z,33.50
2018-07-31T13:17:59.361Z,33.50
2018-07-31T13:19:40.824Z,33.50
2018-07-31T13:21:18.076Z,33.30
2018-07-31T13:22:59.175Z,33.50
2018-07-31T13:24:36.351Z,33.70
2018-07-31T13:26:14.282Z,33.90
2018-07-31T13:27:54.406Z,34.20
2018-07-31T13:29:41.627Z,34.00
2018-07-31T13:31:23.879Z,33.80
2018-07-31T13:34:51.335Z,33.50
2018-07-31T13:36:29.448Z,33.50
2018-07-31T13:38:06.799Z,33.50
2018-07-31T13:39:49.587Z,33.60
2018-07-31T13:41:27.079Z,33.60
2018-07-31T13:43:05.243Z,33.60
2018-07-31T13:44:48.605Z,33.60
2018-07-31T13:46:27.998Z,33.70
2018-07-31T13:48:07.873Z,33.80
2018-07-31T13:49:48.983Z,33.80
2018-07-31T13:51:29.997Z,33.60
2018-07-31T13:53:13.128Z,33.30
2018-07-31T13:54:51.988Z,33.10
2018-07-31T13:56:30.166Z,33.10
2018-07-31T13:58:10.618Z,33.00
2018-07-31T13:59:48.269Z,33.10
2018-07-31T14:03:04.796Z,33.10
2018-07-31T14:04:59.275Z,33.00
2018-07-31T14:06:42.435Z,33.00
2018-07-31T14:08:20.835Z,33.10
2018-07-31T14:13:32.628Z,32.90
2018-07-31T14:15:31.506Z,33.50
2018-07-31T14:17:20.166Z,33.80
2018-07-31T14:19:24.184Z,34.10
2018-07-31T14:21:04.474Z,34.10
2018-07-31T14:22:42.473Z,33.70
2018-07-31T14:24:21.317Z,33.50
2018-07-31T14:25:58.870Z,33.60
2018-07-31T14:27:37.728Z,33.80
2018-07-31T14:29:17.371Z,33.90
2018-07-31T14:31:00.198Z,33.90
2018-07-31T14:32:39.722Z,33.90
2018-07-31T14:34:28.992Z,33.70
2018-07-31T14:36:06.529Z,33.50
2018-07-31T14:37:45.896Z,33.30
2018-07-31T14:39:27.206Z,33.30
2018-07-31T14:41:05.527Z,33.20
2018-07-31T14:42:42.914Z,33.20
2018-07-31T14:44:25.421Z,33.10
2018-07-31T14:46:07.260Z,33.30
2018-07-31T14:47:53.829Z,33.20
2018-07-31T14:49:45.740Z,33.30
2018-07-31T14:51:23.431Z,33.30
2018-07-31T14:53:02.120Z,33.50
2018-07-31T14:54:49.122Z,33.60
2018-07-31T14:58:02.130Z,33.50
2018-07-31T14:59:38.832Z,33.50
2018-07-31T15:01:17.012Z,33.40
2018-07-31T15:02:54.772Z,33.40
2018-07-31T15:04:34.954Z,33.30
2018-07-31T15:06:13.873Z,33.10
2018-07-31T15:07:52.855Z,33.10
2018-07-31T15:09:31.097Z,33.20
2018-07-31T15:11:08.813Z,33.30
2018-07-31T15:12:46.742Z,33.20
2018-07-31T15:14:24.650Z,33.10
2018-07-31T15:16:06.052Z,33.10
2018-07-31T15:17:43.608Z,33.10
2018-07-31T15:19:20.225Z,33.10
2018-07-31T15:20:58.340Z,33.10
2018-07-31T15:22:35.303Z,33.20
2018-07-31T15:24:12.890Z,33.20
2018-07-31T15:25:50.368Z,33.20
2018-07-31T15:27:27.866Z,33.20
2018-07-31T15:29:05.445Z,33.20
2018-07-31T15:30:44.171Z,33.20
2018-07-31T15:32:22.104Z,33.10
2018-07-31T15:34:00.390Z,33.10
2018-07-31T15:35:38.875Z,33.00
2018-07-31T15:37:16.750Z,33.00
2018-07-31T15:38:53.411Z,33.00
2018-07-31T15:40:46.837Z,32.80
2018-07-31T15:42:24.318Z,32.80
2018-07-31T15:44:04.818Z,32.80
2018-07-31T15:45:43.042Z,32.90
2018-07-31T15:47:20.298Z,32.90
2018-07-31T15:48:58.981Z,32.80
2018-07-31T15:50:35.525Z,32.70
2018-07-31T15:52:13.276Z,32.60
2018-07-31T15:54:07.214Z,32.60
2018-07-31T15:55:46.426Z,32.60
2018-07-31T15:57:24.803Z,32.60
2018-07-31T15:59:01.833Z,32.60
2018-07-31T16:00:40.141Z,32.60
2018-07-31T16:02:19.272Z,32.80
2018-07-31T16:03:58.036Z,32.80
2018-07-31T16:05:37.089Z,32.70
2018-07-31T16:07:16.265Z,32.70
2018-07-31T16:08:56.694Z,32.70
2018-07-31T16:12:13.901Z,32.30
2018-07-31T16:13:56.091Z,32.20
2018-07-31T16:15:38.148Z,32.20
2018-07-31T16:17:15.678Z,32.10
2018-07-31T16:18:52.577Z,32.20
2018-07-31T16:20:30.290Z,32.20
2018-07-31T16:22:08.823Z,32.50
2018-07-31T16:23:46.567Z,32.50
2018-07-31T16:25:30.396Z,32.50
2018-07-31T16:27:51.805Z,32.50
2018-07-31T16:29:31.994Z,32.50
2018-07-31T16:31:17.956Z,32.50
2018-07-31T16:32:57.412Z,32.50
2018-07-31T16:34:34.822Z,32.40
2018-07-31T16:36:13.134Z,32.40
2018-07-31T16:37:51.561Z,32.50
2018-07-31T16:39:32.203Z,32.50
2018-07-31T16:41:10.995Z,32.60
2018-07-31T16:42:48.789Z,32.50
2018-07-31T16:44:26.734Z,32.40
2018-07-31T16:46:07.832Z,32.40
2018-07-31T16:47:44.712Z,32.30
2018-07-31T16:51:03.852Z,32.30
2018-07-31T16:52:49.761Z,32.50
2018-07-31T16:54:26.555Z,32.50
2018-07-31T16:56:03.339Z,32.60
2018-07-31T16:57:48.529Z,32.60
2018-07-31T16:59:25.606Z,32.60
2018-07-31T17:01:08.405Z,32.50
2018-07-31T17:02:56.343Z,32.60
2018-07-31T17:04:35.115Z,32.50
2018-07-31T17:06:14.353Z,32.40
2018-07-31T17:07:55.484Z,32.40
2018-07-31T17:09:42.217Z,32.40
2018-07-31T17:11:21.066Z,32.40
2018-07-31T17:12:59.761Z,32.50
2018-07-31T17:14:38.567Z,32.50
2018-07-31T17:16:16.520Z,32.50
2018-07-31T17:17:56.018Z,32.50
2018-07-31T17:19:36.483Z,32.50
2018-07-31T17:21:15.356Z,32.40
2018-07-31T17:22:54.568Z,32.20
2018-07-31T17:24:32.596Z,32.20
2018-07-31T17:26:12.447Z,32.10
2018-07-31T17:27:50.471Z,32.00
2018-07-31T17:29:30.578Z,32.00
2018-07-31T17:31:14.245Z,32.10
2018-07-31T17:32:54.057Z,32.10
2018-07-31T17:34:32.818Z,32.30
2018-07-31T17:36:11.746Z,32.40
2018-07-31T17:37:51.399Z,32.20
2018-07-31T17:39:44.312Z,32.10
2018-07-31T17:41:23.169Z,32.00
2018-07-31T17:43:20.247Z,31.70
2018-07-31T17:45:05.535Z,31.40
2018-07-31T17:48:23.263Z,31.20
2018-07-31T17:50:01.363Z,31.00
2018-07-31T17:51:38.370Z,31.00
2018-07-31T17:53:16.596Z,31.10
2018-07-31T17:54:59.912Z,31.00
2018-07-31T17:56:37.304Z,31.10
2018-07-31T17:58:14.417Z,31.00
2018-07-31T17:59:52.112Z,31.10
2018-07-31T18:01:30.690Z,31.00
2018-07-31T18:03:07.744Z,31.00
2018-07-31T18:04:44.513Z,31.00
2018-07-31T18:06:22.986Z,31.00
2018-07-31T18:08:03.225Z,30.90
2018-07-31T18:09:41.888Z,30.70
2018-07-31T18:11:18.675Z,30.60
2018-07-31T18:12:56.024Z,30.50
2018-07-31T18:14:35.942Z,30.50
2018-07-31T18:16:16.551Z,30.50
2018-07-31T18:17:55.588Z,30.30
2018-07-31T18:19:34.293Z,30.10
2018-07-31T18:21:12.414Z,30.00
2018-07-31T18:22:51.871Z,30.00
2018-07-31T18:24:33.553Z,29.90
2018-07-31T18:26:11.291Z,29.80
2018-07-31T18:27:59.376Z,29.70
2018-07-31T18:29:52.292Z,29.50
2018-07-31T18:31:39.264Z,29.40
2018-07-31T18:33:35.247Z,29.30
2018-07-31T18:35:23.518Z,29.30
2018-07-31T18:37:06.660Z,29.40
2018-07-31T18:38:45.545Z,29.40
2018-07-31T18:40:30.217Z,29.40
2018-07-31T18:42:12.888Z,29.50
2018-07-31T18:43:56.534Z,29.50
2018-07-31T18:45:37.419Z,29.40
2018-07-31T18:47:14.951Z,29.50
2018-07-31T18:48:56.453Z,29.50
2018-07-31T18:50:33.246Z,29.50
2018-07-31T18:52:11.097Z,29.30
2018-07-31T18:53:52.231Z,29.30
2018-07-31T18:55:34.539Z,29.30
2018-07-31T18:57:13.833Z,29.40
2018-07-31T18:58:53.039Z,29.50
2018-07-31T19:00:32.375Z,29.50
2018-07-31T19:02:12.468Z,29.60
2018-07-31T19:03:50.985Z,29.60
2018-07-31T19:05:29.723Z,29.60
2018-07-31T19:07:08.524Z,29.50
2018-07-31T19:08:46.776Z,29.40
2018-07-31T19:10:26.040Z,29.20
2018-07-31T19:12:05.620Z,29.20
2018-07-31T19:13:43.240Z,29.10
2018-07-31T19:15:24.631Z,29.00
2018-07-31T19:17:04.539Z,28.90
2018-07-31T19:18:43.512Z,28.90
2018-07-31T19:20:24.612Z,28.90
2018-07-31T19:22:05.900Z,29.00
2018-07-31T19:23:44.582Z,29.00
2018-07-31T19:25:23.719Z,29.00
2018-07-31T19:27:02.233Z,28.90
2018-07-31T19:28:39.955Z,28.80
2018-07-31T19:30:18.265Z,28.70
2018-07-31T19:31:57.496Z,28.60
2018-07-31T19:33:35.948Z,28.50
2018-07-31T19:35:14.341Z,28.40
2018-07-31T19:36:51.666Z,28.40
2018-07-31T19:38:28.545Z,28.30
2018-07-31T19:40:07.447Z,28.20
2018-07-31T19:41:45.057Z,28.20
2018-07-31T19:44:58.380Z,28.10
2018-07-31T19:48:17.340Z,27.80
2018-07-31T19:49:59.349Z,28.00
2018-07-31T19:51:39.091Z,28.10
2018-07-31T19:53:19.283Z,28.10
2018-07-31T19:54:58.562Z,28.10
2018-07-31T19:56:38.498Z,28.20
2018-07-31T19:58:17.274Z,28.10
2018-07-31T19:59:56.137Z,28.10
2018-07-31T20:01:36.250Z,28.00
2018-07-31T20:03:19.847Z,27.90
2018-07-31T20:04:59.243Z,27.90
2018-07-31T20:06:39.199Z,27.70
2018-07-31T20:08:19.279Z,27.60
2018-07-31T20:09:58.515Z,27.70
2018-07-31T20:11:36.683Z,27.60
2018-07-31T20:13:20.420Z,27.60
2018-07-31T20:15:05.901Z,27.40
2018-07-31T20:16:47.543Z,27.40
2018-07-31T20:18:26.541Z,27.30
2018-07-31T20:20:07.944Z,27.10
2018-07-31T20:21:46.568Z,27.10
2018-07-31T20:23:27.657Z,27.10
2018-07-31T20:25:08.644Z,27.10
2018-07-31T20:26:47.399Z,27.10
2018-07-31T20:28:27.565Z,27.10
2018-07-31T20:30:09.675Z,27.00
2018-07-31T20:31:49.645Z,26.80
2018-07-31T20:33:26.466Z,26.80
2018-07-31T20:35:09.487Z,26.70
2018-07-31T20:38:30.469Z,26.80
2018-07-31T20:40:08.631Z,26.80
2018-07-31T20:41:46.667Z,26.70
2018-07-31T20:43:24.403Z,26.70
2018-07-31T20:45:01.718Z,26.60
2018-07-31T20:48:19.920Z,26.80
2018-07-31T20:50:03.885Z,26.90
2018-07-31T20:51:42.796Z,26.90
2018-07-31T20:53:20.686Z,26.90
2018-07-31T20:55:02.092Z,27.00
2018-07-31T20:56:46.551Z,27.10
2018-07-31T20:58:23.486Z,27.20
2018-07-31T21:00:05.423Z,27.20
2018-07-31T21:01:45.481Z,27.10
2018-07-31T21:03:24.529Z,26.90
2018-07-31T21:05:05.544Z,26.60
2018-07-31T21:06:42.503Z,26.50
2018-07-31T21:08:20.303Z,26.70
2018-07-31T21:10:04.532Z,26.80
2018-07-31T21:11:45.241Z,26.90
2018-07-31T21:13:32.837Z,26.90
2018-07-31T21:15:15.461Z,26.80
2018-07-31T21:16:52.839Z,26.80
2018-07-31T21:18:33.396Z,26.80
2018-07-31T21:20:11.595Z,26.70
2018-07-31T21:21:49.494Z,26.70
2018-07-31T21:23:28.051Z,26.60
2018-07-31T21:25:05.944Z,26.50
2018-07-31T21:26:42.782Z,26.60
2018-07-31T21:28:26.883Z,26.60
2018-07-31T21:30:08.510Z,26.50
2018-07-31T21:31:47.131Z,26.40
2018-07-31T21:33:24.750Z,26.40
2018-07-31T21:35:06.229Z,26.30
2018-07-31T21:36:44.601Z,26.30
2018-07-31T21:38:22.694Z,26.30
2018-07-31T21:40:00.430Z,26.30
2018-07-31T21:41:39.642Z,26.40
2018-07-31T21:43:18.181Z,26.40
2018-07-31T21:44:55.367Z,26.30
2018-07-31T21:46:39.162Z,26.20
2018-07-31T21:48:19.628Z,26.10
2018-07-31T21:49:56.719Z,26.20
2018-07-31T21:51:39.262Z,26.30
2018-07-31T21:53:19.605Z,26.40
2018-07-31T21:54:58.521Z,26.40
2018-07-31T21:56:37.436Z,26.20
2018-07-31T21:58:15.882Z,26.20
2018-07-31T21:59:54.470Z,26.10
2018-07-31T22:03:09.426Z,26.10
2018-07-31T22:04:48.365Z,26.20
2018-07-31T22:06:29.502Z,26.20
2018-07-31T22:08:08.189Z,26.10
2018-07-31T22:09:46.800Z,25.90
2018-07-31T22:11:24.693Z,26.00
2018-07-31T22:13:03.804Z,25.80
2018-07-31T22:14:43.068Z,25.80
2018-07-31T22:18:02.461Z,25.50
2018-07-31T22:19:40.771Z,25.50
2018-07-31T22:21:17.354Z,25.50
2018-07-31T22:22:55.527Z,25.50
2018-07-31T22:24:32.536Z,25.30
2018-07-31T22:26:10.606Z,25.40
2018-07-31T22:27:47.036Z,25.60
2018-07-31T22:29:24.836Z,25.50